sensor_id;sensor_type;location;lat;lon;timestamp;pressure;altitude;pressure_sealevel;temperature;humidity
68656;BME280;55638;51.122;13.606;2023-08-20T00:00:49;100346.25;;;21.85;53.96
68656;BME280;55638;51.122;13.606;2023-08-20T00:02:23;100340.34;;;21.88;54.61
68656;BME280;55638;51.122;13.606;2023-08-20T00:03:56;100348.78;;;21.87;54.38
68656;BME280;55638;51.122;13.606;2023-08-20T00:05:29;100345.84;;;21.88;54.36
68656;BME280;55638;51.122;13.606;2023-08-20T00:07:01;100342.88;;;21.90;54.71
68656;BME280;55638;51.122;13.606;2023-08-20T00:08:34;100346.47;;;21.90;54.50
68656;BME280;55638;51.122;13.606;2023-08-20T00:10:07;100343.56;;;21.92;54.80
68656;BME280;55638;51.122;13.606;2023-08-20T00:11:39;100352.63;;;21.92;54.19
68656;BME280;55638;51.122;13.606;2023-08-20T00:13:11;100351.56;;;21.93;54.37
68656;BME280;55638;51.122;13.606;2023-08-20T00:14:58;100354.13;;;21.95;55.41
68656;BME280;55638;51.122;13.606;2023-08-20T00:16:37;100360.25;;;21.97;54.92
68656;BME280;55638;51.122;13.606;2023-08-20T00:18:09;100361.09;;;21.97;54.47
68656;BME280;55638;51.122;13.606;2023-08-20T00:19:41;100358.16;;;21.99;54.77
68656;BME280;55638;51.122;13.606;2023-08-20T00:21:14;100356.28;;;21.99;54.58
68656;BME280;55638;51.122;13.606;2023-08-20T00:22:46;100360.53;;;22.02;54.88
68656;BME280;55638;51.122;13.606;2023-08-20T00:24:18;100356.53;;;22.04;54.24
68656;BME280;55638;51.122;13.606;2023-08-20T00:25:50;100357.38;;;22.05;54.38
68656;BME280;55638;51.122;13.606;2023-08-20T00:27:22;100356.31;;;22.06;54.09
68656;BME280;55638;51.122;13.606;2023-08-20T00:28:54;100360.56;;;22.09;54.24
68656;BME280;55638;51.122;13.606;2023-08-20T00:30:26;100356.75;;;22.10;54.24
68656;BME280;55638;51.122;13.606;2023-08-20T00:31:58;100356.56;;;22.11;53.90
68656;BME280;55638;51.122;13.606;2023-08-20T00:33:33;100362.72;;;22.13;54.50
68656;BME280;55638;51.122;13.606;2023-08-20T00:35:06;100356.22;;;22.14;53.99
68656;BME280;55638;51.122;13.606;2023-08-20T00:36:40;100352.41;;;22.15;54.03
68656;BME280;55638;51.122;13.606;2023-08-20T00:38:12;100354.09;;;22.16;53.99
68656;BME280;55638;51.122;13.606;2023-08-20T00:39:44;100353.06;;;22.17;53.79
68656;BME280;55638;51.122;13.606;2023-08-20T00:41:16;100354.53;;;22.20;53.83
68656;BME280;55638;51.122;13.606;2023-08-20T00:42:48;100358.16;;;22.20;53.54
68656;BME280;55638;51.122;13.606;2023-08-20T00:44:21;100355.19;;;22.22;53.58
68656;BME280;55638;51.122;13.606;2023-08-20T00:45:53;100362.59;;;22.21;53.32
68656;BME280;55638;51.122;13.606;2023-08-20T00:47:25;100363.25;;;22.23;53.22
68656;BME280;55638;51.122;13.606;2023-08-20T00:48:59;100364.72;;;22.26;53.26
68656;BME280;55638;51.122;13.606;2023-08-20T00:50:31;100355.44;;;22.27;52.80
68656;BME280;55638;51.122;13.606;2023-08-20T00:52:03;100350.59;;;22.29;52.96
68656;BME280;55638;51.122;13.606;2023-08-20T00:53:35;100345.75;;;22.31;52.62
68656;BME280;55638;51.122;13.606;2023-08-20T00:55:09;100355.50;;;22.34;52.47
68656;BME280;55638;51.122;13.606;2023-08-20T00:56:42;100359.94;;;22.35;52.57
68656;BME280;55638;51.122;13.606;2023-08-20T00:58:14;100358.47;;;22.39;52.31
68656;BME280;55638;51.122;13.606;2023-08-20T00:59:47;100362.72;;;22.41;52.53
68656;BME280;55638;51.122;13.606;2023-08-20T01:01:21;100365.25;;;22.43;52.92
68656;BME280;55638;51.122;13.606;2023-08-20T01:02:53;100364.00;;;22.45;52.59
68656;BME280;55638;51.122;13.606;2023-08-20T01:04:28;100372.91;;;22.47;52.89
68656;BME280;55638;51.122;13.606;2023-08-20T01:09:50;100380.97;;;22.56;52.92
68656;BME280;55638;51.122;13.606;2023-08-20T01:11:29;100382.69;;;22.57;53.02
68656;BME280;55638;51.122;13.606;2023-08-20T01:13:04;100386.44;;;22.56;53.10
68656;BME280;55638;51.122;13.606;2023-08-20T01:14:36;100389.00;;;22.57;53.16
68656;BME280;55638;51.122;13.606;2023-08-20T01:16:08;100400.84;;;22.58;52.94
68656;BME280;55638;51.122;13.606;2023-08-20T01:17:41;100391.94;;;22.56;53.37
68656;BME280;55638;51.122;13.606;2023-08-20T01:19:17;100402.94;;;22.56;53.42
68656;BME280;55638;51.122;13.606;2023-08-20T01:20:55;100405.91;;;22.54;53.45
68656;BME280;55638;51.122;13.606;2023-08-20T01:29:25;100404.16;;;22.46;53.12
68656;BME280;55638;51.122;13.606;2023-08-20T01:30:58;100404.34;;;22.45;52.57
68656;BME280;55638;51.122;13.606;2023-08-20T01:32:32;100407.31;;;22.43;52.73
68656;BME280;55638;51.122;13.606;2023-08-20T01:34:04;100404.13;;;22.40;52.76
68656;BME280;55638;51.122;13.606;2023-08-20T01:35:36;100403.47;;;22.38;53.20
68656;BME280;55638;51.122;13.606;2023-08-20T01:37:16;100414.63;;;22.36;53.06
68656;BME280;55638;51.122;13.606;2023-08-20T01:38:48;100411.88;;;22.36;52.72
68656;BME280;55638;51.122;13.606;2023-08-20T01:40:20;100404.94;;;22.34;53.33
68656;BME280;55638;51.122;13.606;2023-08-20T01:41:52;100418.84;;;22.32;53.57
68656;BME280;55638;51.122;13.606;2023-08-20T01:43:24;100409.09;;;22.30;53.35
68656;BME280;55638;51.122;13.606;2023-08-20T01:44:58;100414.59;;;22.30;53.32
68656;BME280;55638;51.122;13.606;2023-08-20T01:46:30;100408.66;;;22.26;53.21
68656;BME280;55638;51.122;13.606;2023-08-20T01:48:03;100417.94;;;22.25;53.43
68656;BME280;55638;51.122;13.606;2023-08-20T01:49:35;100416.25;;;22.24;53.39
68656;BME280;55638;51.122;13.606;2023-08-20T01:51:07;100419.41;;;22.21;53.51
68656;BME280;55638;51.122;13.606;2023-08-20T01:52:40;100418.75;;;22.19;53.74
68656;BME280;55638;51.122;13.606;2023-08-20T01:54:13;100421.50;;;22.19;53.49
68656;BME280;55638;51.122;13.606;2023-08-20T01:55:45;100419.97;;;22.16;53.29
68656;BME280;55638;51.122;13.606;2023-08-20T01:57:17;100421.88;;;22.16;53.47
68656;BME280;55638;51.122;13.606;2023-08-20T01:58:49;100425.00;;;22.13;53.59
68656;BME280;55638;51.122;13.606;2023-08-20T02:00:21;100419.72;;;22.11;53.56
68656;BME280;55638;51.122;13.606;2023-08-20T02:01:53;100431.72;;;22.10;54.06
68656;BME280;55638;51.122;13.606;2023-08-20T02:03:25;100431.94;;;22.09;53.68
68656;BME280;55638;51.122;13.606;2023-08-20T02:04:57;100424.75;;;22.08;54.03
68656;BME280;55638;51.122;13.606;2023-08-20T02:06:29;100433.00;;;22.08;54.27
68656;BME280;55638;51.122;13.606;2023-08-20T02:08:01;100434.22;;;22.05;54.30
68656;BME280;55638;51.122;13.606;2023-08-20T02:09:36;100430.81;;;22.03;54.17
68656;BME280;55638;51.122;13.606;2023-08-20T02:11:08;100433.38;;;22.04;54.22
68656;BME280;55638;51.122;13.606;2023-08-20T02:12:40;100435.69;;;22.01;54.03
68656;BME280;55638;51.122;13.606;2023-08-20T02:14:13;100433.97;;;22.00;53.69
68656;BME280;55638;51.122;13.606;2023-08-20T02:15:45;100436.91;;;21.98;54.01
68656;BME280;55638;51.122;13.606;2023-08-20T02:17:17;100443.44;;;21.97;53.97
68656;BME280;55638;51.122;13.606;2023-08-20T02:18:49;100440.91;;;21.96;53.58
68656;BME280;55638;51.122;13.606;2023-08-20T02:20:21;100442.81;;;21.95;53.57
68656;BME280;55638;51.122;13.606;2023-08-20T02:21:53;100442.81;;;21.95;54.02
68656;BME280;55638;51.122;13.606;2023-08-20T02:23:25;100441.75;;;21.96;53.93
68656;BME280;55638;51.122;13.606;2023-08-20T02:24:57;100453.78;;;21.95;54.11
68656;BME280;55638;51.122;13.606;2023-08-20T02:26:29;100452.72;;;21.96;54.00
68656;BME280;55638;51.122;13.606;2023-08-20T02:28:01;100457.38;;;21.96;54.25
68656;BME280;55638;51.122;13.606;2023-08-20T02:29:34;100448.91;;;21.97;54.35
68656;BME280;55638;51.122;13.606;2023-08-20T02:31:06;100453.38;;;21.98;54.60
68656;BME280;55638;51.122;13.606;2023-08-20T02:32:39;100450.66;;;21.98;54.27
68656;BME280;55638;51.122;13.606;2023-08-20T02:34:11;100453.19;;;22.00;54.22
68656;BME280;55638;51.122;13.606;2023-08-20T02:35:43;100447.69;;;22.00;54.26
68656;BME280;55638;51.122;13.606;2023-08-20T02:37:16;100450.25;;;22.01;54.03
68656;BME280;55638;51.122;13.606;2023-08-20T02:38:49;100443.03;;;22.00;53.92
68656;BME280;55638;51.122;13.606;2023-08-20T02:40:21;100451.09;;;22.02;54.40
68656;BME280;55638;51.122;13.606;2023-08-20T02:41:53;100449.19;;;22.02;54.16
68656;BME280;55638;51.122;13.606;2023-08-20T02:43:25;100451.09;;;22.02;53.95
68656;BME280;55638;51.122;13.606;2023-08-20T02:44:57;100443.72;;;22.02;54.29
68656;BME280;55638;51.122;13.606;2023-08-20T02:46:29;100449.19;;;22.02;54.32
68656;BME280;55638;51.122;13.606;2023-08-20T02:48:01;100451.94;;;22.02;54.13
68656;BME280;55638;51.122;13.606;2023-08-20T02:49:33;100444.75;;;22.01;54.26
68656;BME280;55638;51.122;13.606;2023-08-20T02:51:07;100441.19;;;22.01;54.25
68656;BME280;55638;51.122;13.606;2023-08-20T02:52:41;100442.66;;;22.03;54.34
68656;BME280;55638;51.122;13.606;2023-08-20T02:54:13;100443.72;;;22.02;54.32
68656;BME280;55638;51.122;13.606;2023-08-20T02:55:45;100442.66;;;22.03;54.41
68656;BME280;55638;51.122;13.606;2023-08-20T02:57:17;100438.03;;;22.04;54.28
68656;BME280;55638;51.122;13.606;2023-08-20T02:58:49;100444.38;;;22.04;54.37
68656;BME280;55638;51.122;13.606;2023-08-20T03:00:22;100438.88;;;22.04;54.35
68656;BME280;55638;51.122;13.606;2023-08-20T03:01:54;100435.06;;;22.06;54.30
68656;BME280;55638;51.122;13.606;2023-08-20T03:03:26;100445.00;;;22.07;54.32
68656;BME280;55638;51.122;13.606;2023-08-20T03:04:58;100434.88;;;22.07;54.46
68656;BME280;55638;51.122;13.606;2023-08-20T03:06:31;100438.47;;;22.08;54.22
68656;BME280;55638;51.122;13.606;2023-08-20T03:08:03;100445.66;;;22.09;54.42
68656;BME280;55638;51.122;13.606;2023-08-20T03:09:38;100446.50;;;22.09;54.26
68656;BME280;55638;51.122;13.606;2023-08-20T03:11:10;100448.19;;;22.10;54.06
68656;BME280;55638;51.122;13.606;2023-08-20T03:12:42;100457.09;;;22.12;54.27
68656;BME280;55638;51.122;13.606;2023-08-20T03:14:14;100449.69;;;22.13;54.42
68656;BME280;55638;51.122;13.606;2023-08-20T03:15:46;100445.97;;;22.14;54.30
68656;BME280;55638;51.122;13.606;2023-08-20T03:17:18;100457.56;;;22.16;54.43
68656;BME280;55638;51.122;13.606;2023-08-20T03:18:50;100454.84;;;22.16;54.18
68656;BME280;55638;51.122;13.606;2023-08-20T03:20:22;100456.34;;;22.18;54.59
68656;BME280;55638;51.122;13.606;2023-08-20T03:21:54;100457.19;;;22.19;54.41
68656;BME280;55638;51.122;13.606;2023-08-20T03:23:26;100458.88;;;22.20;54.32
68656;BME280;55638;51.122;13.606;2023-08-20T03:24:58;100464.19;;;22.21;54.50
68656;BME280;55638;51.122;13.606;2023-08-20T03:26:30;100463.13;;;22.22;54.39
68656;BME280;55638;51.122;13.606;2023-08-20T03:28:02;100460.38;;;22.22;54.54
68656;BME280;55638;51.122;13.606;2023-08-20T03:29:35;100464.84;;;22.23;54.08
68656;BME280;55638;51.122;13.606;2023-08-20T03:31:07;100462.09;;;22.23;54.38
68656;BME280;55638;51.122;13.606;2023-08-20T03:32:43;100461.22;;;22.23;54.22
68656;BME280;55638;51.122;13.606;2023-08-20T03:34:15;100457.44;;;22.24;54.34
68656;BME280;55638;51.122;13.606;2023-08-20T03:35:47;100465.69;;;22.24;54.36
68656;BME280;55638;51.122;13.606;2023-08-20T03:37:19;100458.47;;;22.23;54.47
68656;BME280;55638;51.122;13.606;2023-08-20T03:38:51;100453.88;;;22.23;54.31
68656;BME280;55638;51.122;13.606;2023-08-20T03:40:27;100460.19;;;22.24;54.57
68656;BME280;55638;51.122;13.606;2023-08-20T03:41:59;100463.78;;;22.24;54.04
68656;BME280;55638;51.122;13.606;2023-08-20T03:43:31;100469.28;;;22.24;54.53
68656;BME280;55638;51.122;13.606;2023-08-20T03:45:04;100474.09;;;22.22;54.44
68656;BME280;55638;51.122;13.606;2023-08-20T03:46:36;100482.34;;;22.22;54.24
68656;BME280;55638;51.122;13.606;2023-08-20T03:48:08;100489.75;;;22.22;54.75
68656;BME280;55638;51.122;13.606;2023-08-20T03:49:40;100492.47;;;22.22;54.56
68656;BME280;55638;51.122;13.606;2023-08-20T03:51:12;100502.63;;;22.21;54.90
68656;BME280;55638;51.122;13.606;2023-08-20T03:52:45;100499.03;;;22.21;54.86
68656;BME280;55638;51.122;13.606;2023-08-20T03:54:17;100497.13;;;22.21;54.79
68656;BME280;55638;51.122;13.606;2023-08-20T03:55:49;100496.28;;;22.21;54.48
68656;BME280;55638;51.122;13.606;2023-08-20T03:57:21;100498.19;;;22.20;54.52
68656;BME280;55638;51.122;13.606;2023-08-20T03:58:55;100496.47;;;22.19;54.84
68656;BME280;55638;51.122;13.606;2023-08-20T04:00:27;100492.22;;;22.17;54.98
68656;BME280;55638;51.122;13.606;2023-08-20T04:01:59;100495.16;;;22.15;54.45
68656;BME280;55638;51.122;13.606;2023-08-20T04:03:31;100497.25;;;22.13;54.70
68656;BME280;55638;51.122;13.606;2023-08-20T04:05:04;100497.25;;;22.13;54.32
68656;BME280;55638;51.122;13.606;2023-08-20T04:06:36;100491.75;;;22.13;55.07
68656;BME280;55638;51.122;13.606;2023-08-20T04:08:08;100491.94;;;22.12;54.81
68656;BME280;55638;51.122;13.606;2023-08-20T04:09:40;100495.91;;;22.09;54.90
68656;BME280;55638;51.122;13.606;2023-08-20T04:11:13;100505.22;;;22.08;54.93
68656;BME280;55638;51.122;13.606;2023-08-20T04:12:44;100515.34;;;22.08;55.07
68656;BME280;55638;51.122;13.606;2023-08-20T04:14:16;100518.09;;;22.08;55.25
68656;BME280;55638;51.122;13.606;2023-08-20T04:15:49;100521.69;;;22.08;55.54
68656;BME280;55638;51.122;13.606;2023-08-20T04:17:21;100520.19;;;22.06;55.41
68656;BME280;55638;51.122;13.606;2023-08-20T04:18:55;100511.09;;;22.05;55.06
68656;BME280;55638;51.122;13.606;2023-08-20T04:20:28;100508.75;;;22.02;55.46
68656;BME280;55638;51.122;13.606;2023-08-20T04:22:00;100514.41;;;22.00;55.20
68656;BME280;55638;51.122;13.606;2023-08-20T04:23:32;100507.22;;;21.99;55.04
68656;BME280;55638;51.122;13.606;2023-08-20T04:25:05;100512.94;;;21.98;55.15
68656;BME280;55638;51.122;13.606;2023-08-20T04:26:37;100524.94;;;21.97;54.96
68656;BME280;55638;51.122;13.606;2023-08-20T04:28:09;100520.88;;;21.93;55.12
68656;BME280;55638;51.122;13.606;2023-08-20T04:29:41;100521.09;;;21.91;55.63
68656;BME280;55638;51.122;13.606;2023-08-20T04:31:13;100524.88;;;21.90;55.64
68656;BME280;55638;51.122;13.606;2023-08-20T04:32:53;100525.91;;;21.89;55.69
68656;BME280;55638;51.122;13.606;2023-08-20T04:34:24;100528.00;;;21.87;55.53
68656;BME280;55638;51.122;13.606;2023-08-20T04:35:58;100531.78;;;21.86;55.61
68656;BME280;55638;51.122;13.606;2023-08-20T04:37:30;100546.56;;;21.85;55.95
68656;BME280;55638;51.122;13.606;2023-08-20T04:39:02;100542.09;;;21.84;55.97
68656;BME280;55638;51.122;13.606;2023-08-20T04:40:34;100548.47;;;21.85;55.96
68656;BME280;55638;51.122;13.606;2023-08-20T04:42:06;100545.91;;;21.83;55.86
68656;BME280;55638;51.122;13.606;2023-08-20T04:43:38;100541.25;;;21.84;55.96
68656;BME280;55638;51.122;13.606;2023-08-20T04:45:10;100542.09;;;21.84;56.10
68656;BME280;55638;51.122;13.606;2023-08-20T04:46:45;100542.97;;;21.85;56.26
68656;BME280;55638;51.122;13.606;2023-08-20T04:48:17;100544.66;;;21.86;56.14
68656;BME280;55638;51.122;13.606;2023-08-20T04:49:49;100545.50;;;21.86;56.34
68656;BME280;55638;51.122;13.606;2023-08-20T04:51:21;100545.13;;;21.89;56.44
68656;BME280;55638;51.122;13.606;2023-08-20T04:52:53;100543.06;;;21.91;56.46
68656;BME280;55638;51.122;13.606;2023-08-20T04:54:26;100547.09;;;21.95;56.57
68656;BME280;55638;51.122;13.606;2023-08-20T04:55:58;100548.63;;;21.98;56.26
68656;BME280;55638;51.122;13.606;2023-08-20T04:57:31;100556.25;;;22.02;56.20
68656;BME280;55638;51.122;13.606;2023-08-20T04:59:03;100553.13;;;22.06;56.53
68656;BME280;55638;51.122;13.606;2023-08-20T05:01:10;100549.78;;;22.10;56.42
68656;BME280;55638;51.122;13.606;2023-08-20T05:02:43;100553.03;;;22.14;56.20
68656;BME280;55638;51.122;13.606;2023-08-20T05:04:18;100550.75;;;22.17;56.54
68656;BME280;55638;51.122;13.606;2023-08-20T05:05:50;100548.47;;;22.21;56.54
68656;BME280;55638;51.122;13.606;2023-08-20T05:07:22;100549.75;;;22.25;56.53
68656;BME280;55638;51.122;13.606;2023-08-20T05:08:54;100558.28;;;22.30;56.51
68656;BME280;55638;51.122;13.606;2023-08-20T05:10:26;100557.88;;;22.33;56.21
68656;BME280;55638;51.122;13.606;2023-08-20T05:11:59;100558.13;;;22.38;56.72
68656;BME280;55638;51.122;13.606;2023-08-20T05:13:31;100553.91;;;22.42;56.32
68656;BME280;55638;51.122;13.606;2023-08-20T05:15:04;100554.19;;;22.47;56.42
68656;BME280;55638;51.122;13.606;2023-08-20T05:16:36;100566.47;;;22.52;56.43
68656;BME280;55638;51.122;13.606;2023-08-20T05:18:09;100569.28;;;22.58;56.54
68656;BME280;55638;51.122;13.606;2023-08-20T05:19:41;100565.75;;;22.64;56.44
68656;BME280;55638;51.122;13.606;2023-08-20T05:21:13;100575.09;;;22.70;56.27
68656;BME280;55638;51.122;13.606;2023-08-20T05:22:45;100570.72;;;22.76;56.48
68656;BME280;55638;51.122;13.606;2023-08-20T05:24:17;100575.41;;;22.82;56.40
68656;BME280;55638;51.122;13.606;2023-08-20T05:25:50;100582.00;;;22.87;55.94
68656;BME280;55638;51.122;13.606;2023-08-20T05:27:24;100585.66;;;22.94;56.21
68656;BME280;55638;51.122;13.606;2023-08-20T05:28:56;100580.41;;;23.00;56.32
68656;BME280;55638;51.122;13.606;2023-08-20T05:30:28;100585.97;;;23.06;55.90
68656;BME280;55638;51.122;13.606;2023-08-20T05:32:00;100586.22;;;23.11;55.95
68656;BME280;55638;51.122;13.606;2023-08-20T05:33:32;100580.94;;;23.16;55.96
68656;BME280;55638;51.122;13.606;2023-08-20T05:35:08;100579.31;;;23.22;55.85
68656;BME280;55638;51.122;13.606;2023-08-20T05:36:41;100588.66;;;23.28;55.78
68656;BME280;55638;51.122;13.606;2023-08-20T05:38:14;100592.28;;;23.35;55.72
68656;BME280;55638;51.122;13.606;2023-08-20T05:39:46;100591.69;;;23.39;55.47
68656;BME280;55638;51.122;13.606;2023-08-20T05:41:19;100597.44;;;23.45;55.58
68656;BME280;55638;51.122;13.606;2023-08-20T05:42:51;100594.28;;;23.48;55.19
68656;BME280;55638;51.122;13.606;2023-08-20T05:44:24;100594.50;;;23.53;55.45
68656;BME280;55638;51.122;13.606;2023-08-20T05:45:56;100590.31;;;23.57;55.56
68656;BME280;55638;51.122;13.606;2023-08-20T05:47:28;100596.03;;;23.62;55.13
68656;BME280;55638;51.122;13.606;2023-08-20T05:49:00;100599.03;;;23.67;54.95
68656;BME280;55638;51.122;13.606;2023-08-20T05:50:36;100595.47;;;23.73;55.23
68656;BME280;55638;51.122;13.606;2023-08-20T05:52:09;100599.28;;;23.79;55.31
68656;BME280;55638;51.122;13.606;2023-08-20T05:53:42;100604.81;;;23.85;55.34
68656;BME280;55638;51.122;13.606;2023-08-20T05:55:14;100597.47;;;23.93;55.16
68656;BME280;55638;51.122;13.606;2023-08-20T05:56:49;100600.88;;;24.01;55.06
68656;BME280;55638;51.122;13.606;2023-08-20T05:58:21;100601.56;;;24.10;55.04
68656;BME280;55638;51.122;13.606;2023-08-20T05:59:53;100605.16;;;24.17;55.02
68656;BME280;55638;51.122;13.606;2023-08-20T06:01:25;100605.59;;;24.27;54.59
68656;BME280;55638;51.122;13.606;2023-08-20T06:02:57;100607.13;;;24.37;54.89
68656;BME280;55638;51.122;13.606;2023-08-20T06:04:30;100613.28;;;24.45;54.54
68656;BME280;55638;51.122;13.606;2023-08-20T06:06:02;100605.66;;;24.54;54.45
68656;BME280;55638;51.122;13.606;2023-08-20T06:07:39;100613.34;;;24.65;54.32
68656;BME280;55638;51.122;13.606;2023-08-20T06:09:12;100621.38;;;24.73;54.08
68656;BME280;55638;51.122;13.606;2023-08-20T06:10:43;100610.34;;;24.80;53.58
68656;BME280;55638;51.122;13.606;2023-08-20T06:12:16;100611.22;;;24.87;53.69
68656;BME280;55638;51.122;13.606;2023-08-20T06:13:48;100611.22;;;24.94;53.76
68656;BME280;55638;51.122;13.606;2023-08-20T06:15:20;100612.47;;;24.98;53.45
68656;BME280;55638;51.122;13.606;2023-08-20T06:16:52;100611.63;;;25.04;53.35
68656;BME280;55638;51.122;13.606;2023-08-20T06:18:24;100612.88;;;25.08;53.67
68656;BME280;55638;51.122;13.606;2023-08-20T06:19:56;100605.88;;;25.12;53.21
68656;BME280;55638;51.122;13.606;2023-08-20T06:21:30;100606.94;;;25.18;53.36
68656;BME280;55638;51.122;13.606;2023-08-20T06:23:03;100610.78;;;25.23;53.14
68656;BME280;55638;51.122;13.606;2023-08-20T06:24:35;100612.03;;;25.27;53.04
68656;BME280;55638;51.122;13.606;2023-08-20T06:26:07;100612.25;;;25.33;53.12
68656;BME280;55638;51.122;13.606;2023-08-20T06:27:39;100614.59;;;25.36;52.42
68656;BME280;55638;51.122;13.606;2023-08-20T06:29:11;100617.13;;;25.37;52.30
68656;BME280;55638;51.122;13.606;2023-08-20T06:30:44;100610.53;;;25.38;52.28
68656;BME280;55638;51.122;13.606;2023-08-20T06:32:17;100613.09;;;25.40;52.18
68656;BME280;55638;51.122;13.606;2023-08-20T06:33:49;100615.00;;;25.39;52.06
68656;BME280;55638;51.122;13.606;2023-08-20T06:35:21;100619.69;;;25.39;52.38
68656;BME280;55638;51.122;13.606;2023-08-20T06:36:53;100623.47;;;25.38;52.00
68656;BME280;55638;51.122;13.606;2023-08-20T06:38:25;100624.75;;;25.35;51.86
68656;BME280;55638;51.122;13.606;2023-08-20T06:39:57;100629.66;;;25.33;51.86
68656;BME280;55638;51.122;13.606;2023-08-20T06:41:29;100632.63;;;25.32;52.16
68656;BME280;55638;51.122;13.606;2023-08-20T06:43:01;100628.16;;;25.31;52.09
68656;BME280;55638;51.122;13.606;2023-08-20T06:44:33;100627.31;;;25.30;52.07
68656;BME280;55638;51.122;13.606;2023-08-20T06:46:07;100632.00;;;25.30;52.33
68656;BME280;55638;51.122;13.606;2023-08-20T06:47:39;100627.94;;;25.32;52.43
68656;BME280;55638;51.122;13.606;2023-08-20T06:49:11;100622.41;;;25.32;52.34
68656;BME280;55638;51.122;13.606;2023-08-20T06:50:43;100623.28;;;25.33;51.79
68656;BME280;55638;51.122;13.606;2023-08-20T06:52:15;100620.09;;;25.36;51.93
68656;BME280;55638;51.122;13.606;2023-08-20T06:53:50;100625.19;;;25.39;51.82
68656;BME280;55638;51.122;13.606;2023-08-20T06:55:22;100625.19;;;25.39;51.82
68656;BME280;55638;51.122;13.606;2023-08-20T06:56:54;100632.16;;;25.41;52.28
68656;BME280;55638;51.122;13.606;2023-08-20T06:58:26;100637.25;;;25.44;51.97
68656;BME280;55638;51.122;13.606;2023-08-20T06:59:58;100644.25;;;25.47;51.71
68656;BME280;55638;51.122;13.606;2023-08-20T07:01:30;100643.00;;;25.49;51.86
68656;BME280;55638;51.122;13.606;2023-08-20T07:03:02;100641.91;;;25.50;51.86
68656;BME280;55638;51.122;13.606;2023-08-20T07:04:35;100644.47;;;25.52;51.77
68656;BME280;55638;51.122;13.606;2023-08-20T07:06:08;100650.19;;;25.57;51.76
68656;BME280;55638;51.122;13.606;2023-08-20T07:07:43;100644.47;;;25.59;51.75
68656;BME280;55638;51.122;13.606;2023-08-20T07:09:15;100648.06;;;25.59;51.57
68656;BME280;55638;51.122;13.606;2023-08-20T07:10:47;100649.31;;;25.63;52.13
68656;BME280;55638;51.122;13.606;2023-08-20T07:12:19;100653.34;;;25.67;51.65
68656;BME280;55638;51.122;13.606;2023-08-20T07:13:52;100649.28;;;25.70;51.91
68656;BME280;55638;51.122;13.606;2023-08-20T07:15:24;100653.09;;;25.76;51.36
68656;BME280;55638;51.122;13.606;2023-08-20T07:16:57;100649.72;;;25.80;51.53
68656;BME280;55638;51.122;13.606;2023-08-20T07:18:29;100653.28;;;25.87;51.56
68656;BME280;55638;51.122;13.606;2023-08-20T07:20:01;100653.72;;;25.91;51.54
68656;BME280;55638;51.122;13.606;2023-08-20T07:21:34;100657.75;;;25.95;51.15
68656;BME280;55638;51.122;13.606;2023-08-20T07:23:06;100649.44;;;26.02;51.17
68656;BME280;55638;51.122;13.606;2023-08-20T07:24:38;100654.28;;;26.06;50.84
68656;BME280;55638;51.122;13.606;2023-08-20T07:26:11;100639.81;;;26.11;51.03
68656;BME280;55638;51.122;13.606;2023-08-20T07:27:46;100656.38;;;26.17;51.21
68656;BME280;55638;51.122;13.606;2023-08-20T07:29:18;100649.72;;;26.25;51.36
68656;BME280;55638;51.122;13.606;2023-08-20T07:30:50;100649.50;;;26.33;51.63
68656;BME280;55638;51.122;13.606;2023-08-20T07:32:22;100656.88;;;26.46;51.67
68656;BME280;55638;51.122;13.606;2023-08-20T07:33:55;100653.78;;;26.61;51.16
68656;BME280;55638;51.122;13.606;2023-08-20T07:35:28;100660.69;;;26.77;51.19
68656;BME280;55638;51.122;13.606;2023-08-20T07:37:00;100652.50;;;26.95;50.73
68656;BME280;55638;51.122;13.606;2023-08-20T07:38:33;100651.94;;;27.11;50.22
68656;BME280;55638;51.122;13.606;2023-08-20T07:40:05;100656.63;;;27.29;50.37
68656;BME280;55638;51.122;13.606;2023-08-20T07:41:38;100650.78;;;27.44;49.87
68656;BME280;55638;51.122;13.606;2023-08-20T07:43:10;100655.09;;;27.58;49.25
68656;BME280;55638;51.122;13.606;2023-08-20T07:44:42;100654.94;;;27.72;49.07
68656;BME280;55638;51.122;13.606;2023-08-20T07:46:15;100651.88;;;27.80;48.33
68656;BME280;55638;51.122;13.606;2023-08-20T07:47:47;100653.25;;;27.89;47.96
68656;BME280;55638;51.122;13.606;2023-08-20T07:49:19;100650.63;;;27.94;47.42
68656;BME280;55638;51.122;13.606;2023-08-20T07:50:51;100645.84;;;28.01;47.58
68656;BME280;55638;51.122;13.606;2023-08-20T07:52:23;100648.53;;;28.08;47.10
68656;BME280;55638;51.122;13.606;2023-08-20T07:53:55;100650.75;;;28.18;47.65
68656;BME280;55638;51.122;13.606;2023-08-20T07:55:27;100651.06;;;28.28;47.66
68656;BME280;55638;51.122;13.606;2023-08-20T07:56:59;100648.56;;;28.38;47.71
68656;BME280;55638;51.122;13.606;2023-08-20T07:58:31;100655.63;;;28.53;48.09
68656;BME280;55638;51.122;13.606;2023-08-20T08:00:03;100659.41;;;28.70;47.99
68656;BME280;55638;51.122;13.606;2023-08-20T08:01:41;100660.44;;;28.87;46.87
68656;BME280;55638;51.122;13.606;2023-08-20T08:03:14;100662.28;;;29.05;46.71
68656;BME280;55638;51.122;13.606;2023-08-20T08:04:46;100665.44;;;29.20;46.22
68656;BME280;55638;51.122;13.606;2023-08-20T08:06:18;100665.44;;;29.32;45.70
68656;BME280;55638;51.122;13.606;2023-08-20T08:07:52;100669.28;;;29.43;45.76
68656;BME280;55638;51.122;13.606;2023-08-20T08:09:29;100675.34;;;29.52;45.27